sensor_id;sensor_type;location;lat;lon;timestamp;temperature;humidity
29713;DHT22;16623;53.632;10.016;2022-07-06T00:01:54;15.80;99.90
29713;DHT22;16623;53.632;10.016;2022-07-06T00:04:20;15.70;99.90
29713;DHT22;16623;53.632;10.016;2022-07-06T00:06:46;15.70;99.90
29713;DHT22;16623;53.632;10.016;2022-07-06T00:09:11;15.70;99.90
29713;DHT22;16623;53.632;10.016;2022-07-06T00:11:36;15.70;99.90
29713;DHT22;16623;53.632;10.016;2022-07-06T00:14:02;15.80;99.90
29713;DHT22;16623;53.632;10.016;2022-07-06T00:16:28;15.60;99.90
29713;DHT22;16623;53.632;10.016;2022-07-06T00:18:53;15.70;99.90
29713;DHT22;16623;53.632;10.016;2022-07-06T00:21:19;15.70;99.90
29713;DHT22;16623;53.632;10.016;2022-07-06T00:23:44;15.60;99.90
29713;DHT22;16623;53.632;10.016;2022-07-06T00:26:10;15.60;99.90
29713;DHT22;16623;53.632;10.016;2022-07-06T00:28:35;15.60;99.90
29713;DHT22;16623;53.632;10.016;2022-07-06T00:31:01;15.60;99.90
29713;DHT22;16623;53.632;10.016;2022-07-06T00:33:26;15.60;99.90
29713;DHT22;16623;53.632;10.016;2022-07-06T00:35:52;15.60;99.90
29713;DHT22;16623;53.632;10.016;2022-07-06T00:38:17;15.60;99.90
29713;DHT22;16623;53.632;10.016;2022-07-06T00:40:43;15.70;99.90
29713;DHT22;16623;53.632;10.016;2022-07-06T00:43:08;15.70;99.90
29713;DHT22;16623;53.632;10.016;2022-07-06T00:45:34;15.70;99.90
29713;DHT22;16623;53.632;10.016;2022-07-06T00:47:59;15.70;99.90
29713;DHT22;16623;53.632;10.016;2022-07-06T00:50:25;15.60;99.90
29713;DHT22;16623;53.632;10.016;2022-07-06T00:52:59;15.70;99.90
29713;DHT22;16623;53.632;10.016;2022-07-06T00:55:25;15.60;99.90
29713;DHT22;16623;53.632;10.016;2022-07-06T00:57:51;15.60;99.90
29713;DHT22;16623;53.632;10.016;2022-07-06T01:00:18;15.60;99.90
29713;DHT22;16623;53.632;10.016;2022-07-06T01:02:44;15.60;99.90
29713;DHT22;16623;53.632;10.016;2022-07-06T01:05:10;15.70;99.90
29713;DHT22;16623;53.632;10.016;2022-07-06T01:07:36;16.00;99.90
29713;DHT22;16623;53.632;10.016;2022-07-06T01:10:03;15.60;99.90
29713;DHT22;16623;53.632;10.016;2022-07-06T01:12:29;15.60;99.90
29713;DHT22;16623;53.632;10.016;2022-07-06T01:14:54;15.60;99.90
29713;DHT22;16623;53.632;10.016;2022-07-06T01:17:20;15.60;99.90
29713;DHT22;16623;53.632;10.016;2022-07-06T01:19:45;15.60;99.90
29713;DHT22;16623;53.632;10.016;2022-07-06T01:22:11;15.60;99.90
29713;DHT22;16623;53.632;10.016;2022-07-06T01:24:37;15.60;99.90
29713;DHT22;16623;53.632;10.016;2022-07-06T01:27:06;15.60;99.90
29713;DHT22;16623;53.632;10.016;2022-07-06T01:29:31;15.50;99.90
29713;DHT22;16623;53.632;10.016;2022-07-06T01:31:57;15.50;99.90
29713;DHT22;16623;53.632;10.016;2022-07-06T01:34:22;15.50;99.90
29713;DHT22;16623;53.632;10.016;2022-07-06T01:36:48;15.50;99.90
29713;DHT22;16623;53.632;10.016;2022-07-06T01:39:14;15.60;99.90
29713;DHT22;16623;53.632;10.016;2022-07-06T01:41:39;15.50;99.90
29713;DHT22;16623;53.632;10.016;2022-07-06T01:44:05;15.60;99.90
29713;DHT22;16623;53.632;10.016;2022-07-06T01:46:31;15.50;99.90
29713;DHT22;16623;53.632;10.016;2022-07-06T01:48:56;15.60;99.90
29713;DHT22;16623;53.632;10.016;2022-07-06T01:51:22;15.60;99.90
29713;DHT22;16623;53.632;10.016;2022-07-06T01:53:48;15.20;99.90
29713;DHT22;16623;53.632;10.016;2022-07-06T01:56:13;15.50;99.90
29713;DHT22;16623;53.632;10.016;2022-07-06T01:58:39;15.50;99.90
29713;DHT22;16623;53.632;10.016;2022-07-06T02:01:11;15.50;99.90
29713;DHT22;16623;53.632;10.016;2022-07-06T02:03:37;15.50;99.90
29713;DHT22;16623;53.632;10.016;2022-07-06T02:06:03;15.50;99.90
29713;DHT22;16623;53.632;10.016;2022-07-06T02:08:29;15.40;99.90
29713;DHT22;16623;53.632;10.016;2022-07-06T02:10:55;15.40;99.90
29713;DHT22;16623;53.632;10.016;2022-07-06T02:13:20;15.40;99.90
29713;DHT22;16623;53.632;10.016;2022-07-06T02:15:46;15.30;99.90
29713;DHT22;16623;53.632;10.016;2022-07-06T02:18:11;15.20;99.90
29713;DHT22;16623;53.632;10.016;2022-07-06T02:20:36;15.20;99.90
29713;DHT22;16623;53.632;10.016;2022-07-06T02:23:02;15.20;99.90
29713;DHT22;16623;53.632;10.016;2022-07-06T02:25:28;15.30;99.90
29713;DHT22;16623;53.632;10.016;2022-07-06T02:27:53;15.00;99.90
29713;DHT22;16623;53.632;10.016;2022-07-06T02:30:18;15.00;99.90
29713;DHT22;16623;53.632;10.016;2022-07-06T02:32:44;15.10;99.90
29713;DHT22;16623;53.632;10.016;2022-07-06T02:35:10;15.20;99.90
29713;DHT22;16623;53.632;10.016;2022-07-06T02:37:35;15.20;99.90
29713;DHT22;16623;53.632;10.016;2022-07-06T02:40:00;15.20;99.90
29713;DHT22;16623;53.632;10.016;2022-07-06T02:42:26;15.20;99.90
29713;DHT22;16623;53.632;10.016;2022-07-06T02:44:52;15.30;99.90
29713;DHT22;16623;53.632;10.016;2022-07-06T02:47:18;15.20;99.90
29713;DHT22;16623;53.632;10.016;2022-07-06T02:49:44;15.20;99.90
29713;DHT22;16623;53.632;10.016;2022-07-06T02:52:09;15.20;99.90
29713;DHT22;16623;53.632;10.016;2022-07-06T02:54:34;15.20;99.90
29713;DHT22;16623;53.632;10.016;2022-07-06T02:57:00;15.30;99.90
29713;DHT22;16623;53.632;10.016;2022-07-06T02:59:25;15.20;99.90
29713;DHT22;16623;53.632;10.016;2022-07-06T03:01:52;15.30;99.90
29713;DHT22;16623;53.632;10.016;2022-07-06T03:04:17;15.30;99.90
29713;DHT22;16623;53.632;10.016;2022-07-06T03:06:43;15.30;99.90
29713;DHT22;16623;53.632;10.016;2022-07-06T03:09:08;15.20;99.90
29713;DHT22;16623;53.632;10.016;2022-07-06T03:11:34;15.20;99.90
29713;DHT22;16623;53.632;10.016;2022-07-06T03:14:03;15.20;99.90
29713;DHT22;16623;53.632;10.016;2022-07-06T03:16:28;15.20;99.90
29713;DHT22;16623;53.632;10.016;2022-07-06T03:18:54;14.50;99.90
29713;DHT22;16623;53.632;10.016;2022-07-06T03:21:19;15.30;99.90
29713;DHT22;16623;53.632;10.016;2022-07-06T03:23:45;15.30;99.90
29713;DHT22;16623;53.632;10.016;2022-07-06T03:26:10;15.20;99.90
29713;DHT22;16623;53.632;10.016;2022-07-06T03:28:35;15.20;99.90
29713;DHT22;16623;53.632;10.016;2022-07-06T03:31:01;15.10;99.90
29713;DHT22;16623;53.632;10.016;2022-07-06T03:33:26;15.20;99.90
29713;DHT22;16623;53.632;10.016;2022-07-06T03:35:52;15.20;99.90
29713;DHT22;16623;53.632;10.016;2022-07-06T03:38:17;15.20;99.90
29713;DHT22;16623;53.632;10.016;2022-07-06T03:40:42;15.20;99.90
29713;DHT22;16623;53.632;10.016;2022-07-06T03:43:08;15.30;99.90
29713;DHT22;16623;53.632;10.016;2022-07-06T03:45:33;15.30;99.90
29713;DHT22;16623;53.632;10.016;2022-07-06T03:47:59;15.40;99.90
29713;DHT22;16623;53.632;10.016;2022-07-06T03:50:24;15.30;99.90
29713;DHT22;16623;53.632;10.016;2022-07-06T03:52:49;15.30;99.90
29713;DHT22;16623;53.632;10.016;2022-07-06T03:55:15;15.30;99.90
29713;DHT22;16623;53.632;10.016;2022-07-06T03:57:40;15.40;99.90
29713;DHT22;16623;53.632;10.016;2022-07-06T04:00:06;15.30;99.90
29713;DHT22;16623;53.632;10.016;2022-07-06T04:02:32;15.30;99.90
29713;DHT22;16623;53.632;10.016;2022-07-06T04:04:57;15.30;99.90
29713;DHT22;16623;53.632;10.016;2022-07-06T04:07:24;15.20;99.90
29713;DHT22;16623;53.632;10.016;2022-07-06T04:09:50;15.20;99.90
29713;DHT22;16623;53.632;10.016;2022-07-06T04:12:15;15.00;99.90
29713;DHT22;16623;53.632;10.016;2022-07-06T04:14:41;14.90;99.90
29713;DHT22;16623;53.632;10.016;2022-07-06T04:17:06;14.80;99.90
29713;DHT22;16623;53.632;10.016;2022-07-06T04:19:51;14.80;99.90
29713;DHT22;16623;53.632;10.016;2022-07-06T04:22:16;14.80;99.90
29713;DHT22;16623;53.632;10.016;2022-07-06T04:24:42;14.80;99.90
29713;DHT22;16623;53.632;10.016;2022-07-06T04:27:07;14.80;99.90
29713;DHT22;16623;53.632;10.016;2022-07-06T04:29:33;14.70;99.90
29713;DHT22;16623;53.632;10.016;2022-07-06T04:31:58;14.80;99.90
29713;DHT22;16623;53.632;10.016;2022-07-06T04:34:25;14.70;99.90
29713;DHT22;16623;53.632;10.016;2022-07-06T04:36:50;14.80;99.90
29713;DHT22;16623;53.632;10.016;2022-07-06T04:39:16;14.90;99.90
29713;DHT22;16623;53.632;10.016;2022-07-06T04:41:41;14.90;99.90
29713;DHT22;16623;53.632;10.016;2022-07-06T04:44:07;14.90;99.90
29713;DHT22;16623;53.632;10.016;2022-07-06T04:46:32;14.90;99.90
29713;DHT22;16623;53.632;10.016;2022-07-06T04:48:58;14.90;99.90
29713;DHT22;16623;53.632;10.016;2022-07-06T04:51:23;15.00;99.90
29713;DHT22;16623;53.632;10.016;2022-07-06T04:53:49;15.10;99.90
29713;DHT22;16623;53.632;10.016;2022-07-06T04:56:14;15.10;99.90
29713;DHT22;16623;53.632;10.016;2022-07-06T04:58:40;15.20;99.90
29713;DHT22;16623;53.632;10.016;2022-07-06T05:01:05;15.20;99.90
29713;DHT22;16623;53.632;10.016;2022-07-06T05:03:30;15.10;99.90
29713;DHT22;16623;53.632;10.016;2022-07-06T05:05:56;15.10;99.90
29713;DHT22;16623;53.632;10.016;2022-07-06T05:08:21;15.10;99.90
29713;DHT22;16623;53.632;10.016;2022-07-06T05:10:47;15.10;99.90
29713;DHT22;16623;53.632;10.016;2022-07-06T05:13:13;15.00;99.90
29713;DHT22;16623;53.632;10.016;2022-07-06T05:15:39;15.00;99.90
29713;DHT22;16623;53.632;10.016;2022-07-06T05:18:04;15.00;99.90
29713;DHT22;16623;53.632;10.016;2022-07-06T05:20:30;15.10;99.90
29713;DHT22;16623;53.632;10.016;2022-07-06T05:22:55;15.10;99.90
29713;DHT22;16623;53.632;10.016;2022-07-06T05:25:21;15.10;99.90
29713;DHT22;16623;53.632;10.016;2022-07-06T05:27:46;15.20;99.90
29713;DHT22;16623;53.632;10.016;2022-07-06T05:30:12;15.10;99.90
29713;DHT22;16623;53.632;10.016;2022-07-06T05:32:37;15.10;99.90
29713;DHT22;16623;53.632;10.016;2022-07-06T05:35:03;15.00;99.90
29713;DHT22;16623;53.632;10.016;2022-07-06T05:37:28;15.20;99.90
29713;DHT22;16623;53.632;10.016;2022-07-06T05:39:54;15.20;99.90
29713;DHT22;16623;53.632;10.016;2022-07-06T05:42:20;15.30;99.90
29713;DHT22;16623;53.632;10.016;2022-07-06T05:44:45;15.30;99.90
29713;DHT22;16623;53.632;10.016;2022-07-06T05:47:10;15.40;99.90
29713;DHT22;16623;53.632;10.016;2022-07-06T05:49:54;15.40;99.90
29713;DHT22;16623;53.632;10.016;2022-07-06T05:52:39;15.50;99.90
29713;DHT22;16623;53.632;10.016;2022-07-06T05:55:05;15.50;99.90
29713;DHT22;16623;53.632;10.016;2022-07-06T05:57:30;15.50;99.90
29713;DHT22;16623;53.632;10.016;2022-07-06T05:59:56;15.40;99.90
29713;DHT22;16623;53.632;10.016;2022-07-06T06:02:21;15.40;99.90
29713;DHT22;16623;53.632;10.016;2022-07-06T06:04:47;15.30;99.90
29713;DHT22;16623;53.632;10.016;2022-07-06T06:07:14;15.30;99.90
29713;DHT22;16623;53.632;10.016;2022-07-06T06:09:39;15.30;99.90
29713;DHT22;16623;53.632;10.016;2022-07-06T06:12:05;15.40;99.90
29713;DHT22;16623;53.632;10.016;2022-07-06T06:14:30;15.30;99.90
29713;DHT22;16623;53.632;10.016;2022-07-06T06:16:56;15.30;99.90
29713;DHT22;16623;53.632;10.016;2022-07-06T06:19:21;15.30;99.90
29713;DHT22;16623;53.632;10.016;2022-07-06T06:21:47;15.30;99.90
29713;DHT22;16623;53.632;10.016;2022-07-06T06:24:12;15.40;99.90
29713;DHT22;16623;53.632;10.016;2022-07-06T06:26:37;15.40;99.90
29713;DHT22;16623;53.632;10.016;2022-07-06T06:29:03;15.50;99.90
29713;DHT22;16623;53.632;10.016;2022-07-06T06:31:28;15.50;99.90
29713;DHT22;16623;53.632;10.016;2022-07-06T06:33:54;15.50;99.90
29713;DHT22;16623;53.632;10.016;2022-07-06T06:36:19;15.60;99.90
29713;DHT22;16623;53.632;10.016;2022-07-06T06:38:44;15.60;99.90
29713;DHT22;16623;53.632;10.016;2022-07-06T06:41:10;15.50;99.90
29713;DHT22;16623;53.632;10.016;2022-07-06T06:43:35;15.50;99.90
29713;DHT22;16623;53.632;10.016;2022-07-06T06:46:01;15.60;99.90
29713;DHT22;16623;53.632;10.016;2022-07-06T06:48:26;15.60;99.90
29713;DHT22;16623;53.632;10.016;2022-07-06T06:50:52;15.70;99.90
29713;DHT22;16623;53.632;10.016;2022-07-06T06:53:17;15.70;99.90
29713;DHT22;16623;53.632;10.016;2022-07-06T06:55:43;15.70;99.90
29713;DHT22;16623;53.632;10.016;2022-07-06T06:58:08;15.80;99.90
29713;DHT22;16623;53.632;10.016;2022-07-06T07:00:34;15.80;99.90
29713;DHT22;16623;53.632;10.016;2022-07-06T07:02:59;15.80;99.90
29713;DHT22;16623;53.632;10.016;2022-07-06T07:05:24;15.80;99.90
29713;DHT22;16623;53.632;10.016;2022-07-06T07:07:50;15.80;99.90
29713;DHT22;16623;53.632;10.016;2022-07-06T07:10:16;15.90;99.90
29713;DHT22;16623;53.632;10.016;2022-07-06T07:12:45;16.00;99.90
29713;DHT22;16623;53.632;10.016;2022-07-06T07:15:11;16.00;99.90
29713;DHT22;16623;53.632;10.016;2022-07-06T07:17:36;16.20;99.90
29713;DHT22;16623;53.632;10.016;2022-07-06T07:20:03;16.10;99.90
29713;DHT22;16623;53.632;10.016;2022-07-06T07:22:28;16.20;99.90
29713;DHT22;16623;53.632;10.016;2022-07-06T07:24:54;16.30;99.90
29713;DHT22;16623;53.632;10.016;2022-07-06T07:27:19;16.30;99.90
29713;DHT22;16623;53.632;10.016;2022-07-06T07:29:44;16.30;99.90
29713;DHT22;16623;53.632;10.016;2022-07-06T07:32:10;16.40;99.90
29713;DHT22;16623;53.632;10.016;2022-07-06T07:34:35;16.40;99.90
29713;DHT22;16623;53.632;10.016;2022-07-06T07:37:01;16.40;99.90
29713;DHT22;16623;53.632;10.016;2022-07-06T07:39:26;16.40;99.90
29713;DHT22;16623;53.632;10.016;2022-07-06T07:41:52;16.40;99.90
29713;DHT22;16623;53.632;10.016;2022-07-06T07:44:17;16.40;99.90
29713;DHT22;16623;53.632;10.016;2022-07-06T07:46:43;16.50;99.90
29713;DHT22;16623;53.632;10.016;2022-07-06T07:49:08;16.50;99.90
29713;DHT22;16623;53.632;10.016;2022-07-06T07:51:34;16.60;99.90
29713;DHT22;16623;53.632;10.016;2022-07-06T07:54:00;16.50;99.90
29713;DHT22;16623;53.632;10.016;2022-07-06T07:56:25;16.60;99.90
29713;DHT22;16623;53.632;10.016;2022-07-06T07:58:50;16.70;99.90
29713;DHT22;16623;53.632;10.016;2022-07-06T08:01:16;16.80;99.90
29713;DHT22;16623;53.632;10.016;2022-07-06T08:03:41;16.70;99.90
29713;DHT22;16623;53.632;10.016;2022-07-06T08:06:07;16.70;99.90
29713;DHT22;16623;53.632;10.016;2022-07-06T08:08:33;16.80;99.90
29713;DHT22;16623;53.632;10.016;2022-07-06T08:10:58;17.00;99.90
29713;DHT22;16623;53.632;10.016;2022-07-06T08:13:24;17.00;99.90
29713;DHT22;16623;53.632;10.016;2022-07-06T08:15:49;17.10;99.90
29713;DHT22;16623;53.632;10.016;2022-07-06T08:18:14;17.20;99.90
29713;DHT22;16623;53.632;10.016;2022-07-06T08:20:40;17.20;99.90
29713;DHT22;16623;53.632;10.016;2022-07-06T08:23:05;17.40;99.90
29713;DHT22;16623;53.632;10.016;2022-07-06T08:25:31;17.10;99.90
29713;DHT22;16623;53.632;10.016;2022-07-06T08:27:57;17.10;99.90
29713;DHT22;16623;53.632;10.016;2022-07-06T08:30:22;17.20;99.90
29713;DHT22;16623;53.632;10.016;2022-07-06T08:32:48;17.30;99.90
29713;DHT22;16623;53.632;10.016;2022-07-06T08:35:13;17.20;99.90
29713;DHT22;16623;53.632;10.016;2022-07-06T08:37:39;17.20;99.90
29713;DHT22;16623;53.632;10.016;2022-07-06T08:40:05;17.20;99.90
29713;DHT22;16623;53.632;10.016;2022-07-06T08:42:31;17.20;99.90
29713;DHT22;16623;53.632;10.016;2022-07-06T08:45:00;17.20;99.90
29713;DHT22;16623;53.632;10.016;2022-07-06T08:47:26;17.20;99.90
29713;DHT22;16623;53.632;10.016;2022-07-06T08:49:52;17.10;99.90
29713;DHT22;16623;53.632;10.016;2022-07-06T08:52:19;17.00;99.90
29713;DHT22;16623;53.632;10.016;2022-07-06T08:54:44;16.80;99.90
29713;DHT22;16623;53.632;10.016;2022-07-06T08:57:10;16.70;99.90
29713;DHT22;16623;53.632;10.016;2022-07-06T08:59:35;16.40;99.90
29713;DHT22;16623;53.632;10.016;2022-07-06T09:02:01;16.10;99.90
29713;DHT22;16623;53.632;10.016;2022-07-06T09:04:28;16.00;99.90
29713;DHT22;16623;53.632;10.016;2022-07-06T09:06:53;15.90;99.90
29713;DHT22;16623;53.632;10.016;2022-07-06T09:09:20;15.80;99.90
29713;DHT22;16623;53.632;10.016;2022-07-06T09:11:49;15.80;99.90
29713;DHT22;16623;53.632;10.016;2022-07-06T09:14:15;16.00;99.90
29713;DHT22;16623;53.632;10.016;2022-07-06T09:16:40;15.90;99.90
29713;DHT22;16623;53.632;10.016;2022-07-06T09:19:06;16.00;99.90
29713;DHT22;16623;53.632;10.016;2022-07-06T09:21:32;16.20;99.90
29713;DHT22;16623;53.632;10.016;2022-07-06T09:24:01;16.30;99.90
29713;DHT22;16623;53.632;10.016;2022-07-06T09:26:30;16.40;99.90
29713;DHT22;16623;53.632;10.016;2022-07-06T09:28:56;16.50;99.90
29713;DHT22;16623;53.632;10.016;2022-07-06T09:31:22;16.70;99.90
29713;DHT22;16623;53.632;10.016;2022-07-06T09:33:57;17.10;99.90
29713;DHT22;16623;53.632;10.016;2022-07-06T09:36:36;17.20;99.90
29713;DHT22;16623;53.632;10.016;2022-07-06T09:39:24;17.30;99.90
29713;DHT22;16623;53.632;10.016;2022-07-06T09:41:48;17.20;99.90
29713;DHT22;16623;53.632;10.016;2022-07-06T09:44:18;17.40;99.90
29713;DHT22;16623;53.632;10.016;2022-07-06T09:46:45;17.60;99.90
29713;DHT22;16623;53.632;10.016;2022-07-06T09:49:11;17.80;99.90
29713;DHT22;16623;53.632;10.016;2022-07-06T09:51:37;18.00;99.90
29713;DHT22;16623;53.632;10.016;2022-07-06T09:54:06;18.00;99.90
29713;DHT22;16623;53.632;10.016;2022-07-06T09:56:39;17.80;99.90
29713;DHT22;16623;53.632;10.016;2022-07-06T09:59:07;17.70;99.90
29713;DHT22;16623;53.632;10.016;2022-07-06T10:01:33;17.90;99.90
29713;DHT22;16623;53.632;10.016;2022-07-06T10:03:58;18.00;99.90
29713;DHT22;16623;53.632;10.016;2022-07-06T10:06:24;18.10;99.90
29713;DHT22;16623;53.632;10.016;2022-07-06T10:08:50;17.70;99.90
29713;DHT22;16623;53.632;10.016;2022-07-06T10:11:15;17.50;99.90
29713;DHT22;16623;53.632;10.016;2022-07-06T10:13:41;17.50;99.90
29713;DHT22;16623;53.632;10.016;2022-07-06T10:16:07;17.20;99.90
29713;DHT22;16623;53.632;10.016;2022-07-06T10:18:33;17.00;99.90
29713;DHT22;16623;53.632;10.016;2022-07-06T10:20:59;16.60;99.90
29713;DHT22;16623;53.632;10.016;2022-07-06T10:23:25;16.50;99.90
29713;DHT22;16623;53.632;10.016;2022-07-06T10:25:51;16.30;99.90
29713;DHT22;16623;53.632;10.016;2022-07-06T10:28:17;16.20;99.90
29713;DHT22;16623;53.632;10.016;2022-07-06T10:30:43;16.10;99.90
29713;DHT22;16623;53.632;10.016;2022-07-06T10:33:10;16.00;99.90
29713;DHT22;16623;53.632;10.016;2022-07-06T10:35:36;16.00;99.90
29713;DHT22;16623;53.632;10.016;2022-07-06T10:40:37;16.00;99.90
29713;DHT22;16623;53.632;10.016;2022-07-06T10:43:21;16.00;99.90
29713;DHT22;16623;53.632;10.016;2022-07-06T10:50:48;16.10;99.90
29713;DHT22;16623;53.632;10.016;2022-07-06T10:53:16;16.30;99.90
29713;DHT22;16623;53.632;10.016;2022-07-06T10:55:45;16.40;99.90
29713;DHT22;16623;53.632;10.016;2022-07-06T10:58:12;16.50;99.90
29713;DHT22;16623;53.632;10.016;2022-07-06T11:00:54;16.10;99.90
29713;DHT22;16623;53.632;10.016;2022-07-06T11:06:03;16.90;99.90
29713;DHT22;16623;53.632;10.016;2022-07-06T11:11:18;17.10;99.90
29713;DHT22;16623;53.632;10.016;2022-07-06T11:13:51;17.30;99.90
29713;DHT22;16623;53.632;10.016;2022-07-06T11:16:17;17.60;99.90
29713;DHT22;16623;53.632;10.016;2022-07-06T11:19:02;17.80;99.90
29713;DHT22;16623;53.632;10.016;2022-07-06T11:21:32;18.10;99.90
29713;DHT22;16623;53.632;10.016;2022-07-06T11:23:58;18.40;99.90
29713;DHT22;16623;53.632;10.016;2022-07-06T11:26:23;18.70;99.90
29713;DHT22;16623;53.632;10.016;2022-07-06T11:28:50;18.60;99.90
29713;DHT22;16623;53.632;10.016;2022-07-06T11:31:16;18.70;99.90
29713;DHT22;16623;53.632;10.016;2022-07-06T11:33:44;18.80;99.90
29713;DHT22;16623;53.632;10.016;2022-07-06T11:36:20;19.00;99.90
29713;DHT22;16623;53.632;10.016;2022-07-06T11:38:46;19.00;99.90
29713;DHT22;16623;53.632;10.016;2022-07-06T11:41:13;18.90;99.90
29713;DHT22;16623;53.632;10.016;2022-07-06T11:43:40;18.70;99.90
29713;DHT22;16623;53.632;10.016;2022-07-06T11:46:18;18.50;99.90
29713;DHT22;16623;53.632;10.016;2022-07-06T11:48:47;18.40;99.90
29713;DHT22;16623;53.632;10.016;2022-07-06T11:51:13;18.40;99.90
29713;DHT22;16623;53.632;10.016;2022-07-06T11:53:42;18.40;99.90
29713;DHT22;16623;53.632;10.016;2022-07-06T11:56:08;18.10;99.90
29713;DHT22;16623;53.632;10.016;2022-07-06T11:58:34;18.70;99.90
29713;DHT22;16623;53.632;10.016;2022-07-06T12:01:06;18.90;99.90
29713;DHT22;16623;53.632;10.016;2022-07-06T12:03:32;19.10;99.90
29713;DHT22;16623;53.632;10.016;2022-07-06T12:05:58;19.40;99.90
29713;DHT22;16623;53.632;10.016;2022-07-06T12:08:24;19.70;99.90
29713;DHT22;16623;53.632;10.016;2022-07-06T12:10:49;19.80;99.90
29713;DHT22;16623;53.632;10.016;2022-07-06T12:13:15;20.00;99.90
29713;DHT22;16623;53.632;10.016;2022-07-06T12:15:40;20.20;99.90
29713;DHT22;16623;53.632;10.016;2022-07-06T12:18:05;20.30;99.90
29713;DHT22;16623;53.632;10.016;2022-07-06T12:20:31;20.30;99.90
29713;DHT22;16623;53.632;10.016;2022-07-06T12:23:03;20.40;99.90
29713;DHT22;16623;53.632;10.016;2022-07-06T12:25:37;20.40;99.90
29713;DHT22;16623;53.632;10.016;2022-07-06T12:28:03;20.30;99.90
29713;DHT22;16623;53.632;10.016;2022-07-06T12:30:29;20.30;99.90
29713;DHT22;16623;53.632;10.016;2022-07-06T12:33:13;20.40;99.90
29713;DHT22;16623;53.632;10.016;2022-07-06T12:35:40;20.50;99.90
29713;DHT22;16623;53.632;10.016;2022-07-06T12:38:06;20.40;99.90
29713;DHT22;16623;53.632;10.016;2022-07-06T12:40:32;20.10;99.90
29713;DHT22;16623;53.632;10.016;2022-07-06T12:42:57;19.80;99.90
29713;DHT22;16623;53.632;10.016;2022-07-06T12:45:27;19.70;99.90
29713;DHT22;16623;53.632;10.016;2022-07-06T12:50:34;19.80;99.90
29713;DHT22;16623;53.632;10.016;2022-07-06T12:53:00;19.80;99.90
29713;DHT22;16623;53.632;10.016;2022-07-06T12:55:27;19.70;99.90
29713;DHT22;16623;53.632;10.016;2022-07-06T12:57:53;19.60;99.90
29713;DHT22;16623;53.632;10.016;2022-07-06T13:00:18;19.40;99.90
29713;DHT22;16623;53.632;10.016;2022-07-06T13:02:49;19.30;99.90
29713;DHT22;16623;53.632;10.016;2022-07-06T13:05:22;19.40;99.90
29713;DHT22;16623;53.632;10.016;2022-07-06T13:07:52;19.60;99.90
29713;DHT22;16623;53.632;10.016;2022-07-06T13:10:18;19.90;99.90
29713;DHT22;16623;53.632;10.016;2022-07-06T13:12:44;20.30;99.90
29713;DHT22;16623;53.632;10.016;2022-07-06T13:15:10;20.50;99.90
29713;DHT22;16623;53.632;10.016;2022-07-06T13:17:35;20.70;99.90
29713;DHT22;16623;53.632;10.016;2022-07-06T13:20:02;20.80;99.90
29713;DHT22;16623;53.632;10.016;2022-07-06T13:22:28;20.70;99.90
29713;DHT22;16623;53.632;10.016;2022-07-06T13:24:53;20.80;99.90
29713;DHT22;16623;53.632;10.016;2022-07-06T13:27:19;20.80;99.90
29713;DHT22;16623;53.632;10.016;2022-07-06T13:29:44;20.80;99.90
29713;DHT22;16623;53.632;10.016;2022-07-06T13:32:11;20.90;99.90
29713;DHT22;16623;53.632;10.016;2022-07-06T13:34:36;20.80;99.90
29713;DHT22;16623;53.632;10.016;2022-07-06T13:37:02;20.70;99.90
29713;DHT22;16623;53.632;10.016;2022-07-06T13:39:28;20.70;99.90
29713;DHT22;16623;53.632;10.016;2022-07-06T13:41:54;20.70;99.90
29713;DHT22;16623;53.632;10.016;2022-07-06T13:44:19;20.80;99.90
29713;DHT22;16623;53.632;10.016;2022-07-06T13:46:45;20.90;99.90
29713;DHT22;16623;53.632;10.016;2022-07-06T13:49:10;21.00;99.90
29713;DHT22;16623;53.632;10.016;2022-07-06T13:51:36;21.00;99.90
29713;DHT22;16623;53.632;10.016;2022-07-06T13:54:01;20.90;99.90
29713;DHT22;16623;53.632;10.016;2022-07-06T13:56:27;20.70;99.90
29713;DHT22;16623;53.632;10.016;2022-07-06T13:58:53;20.50;99.90
29713;DHT22;16623;53.632;10.016;2022-07-06T14:01:19;20.50;99.90
29713;DHT22;16623;53.632;10.016;2022-07-06T14:03:45;20.70;99.90
29713;DHT22;16623;53.632;10.016;2022-07-06T14:06:11;20.70;99.90
29713;DHT22;16623;53.632;10.016;2022-07-06T14:08:37;20.70;99.90
29713;DHT22;16623;53.632;10.016;2022-07-06T14:11:03;20.70;99.90
29713;DHT22;16623;53.632;10.016;2022-07-06T14:13:29;20.80;99.90
29713;DHT22;16623;53.632;10.016;2022-07-06T14:15:55;20.90;99.90
29713;DHT22;16623;53.632;10.016;2022-07-06T14:18:21;21.00;99.90
29713;DHT22;16623;53.632;10.016;2022-07-06T14:20:47;21.00;99.90
29713;DHT22;16623;53.632;10.016;2022-07-06T14:23:13;21.10;99.60
29713;DHT22;16623;53.632;10.016;2022-07-06T14:25:39;21.10;97.90
29713;DHT22;16623;53.632;10.016;2022-07-06T14:28:05;21.10;98.10
29713;DHT22;16623;53.632;10.016;2022-07-06T14:30:31;21.00;98.50
29713;DHT22;16623;53.632;10.016;2022-07-06T14:32:57;21.00;99.40
29713;DHT22;16623;53.632;10.016;2022-07-06T14:35:23;20.90;98.50
29713;DHT22;16623;53.632;10.016;2022-07-06T14:37:50;20.80;99.70
29713;DHT22;16623;53.632;10.016;2022-07-06T14:40:15;20.90;99.00
29713;DHT22;16623;53.632;10.016;2022-07-06T14:42:41;20.70;99.90
29713;DHT22;16623;53.632;10.016;2022-07-06T14:45:07;20.80;99.90
29713;DHT22;16623;53.632;10.016;2022-07-06T14:47:32;20.70;99.90
29713;DHT22;16623;53.632;10.016;2022-07-06T14:49:58;20.60;99.60
29713;DHT22;16623;53.632;10.016;2022-07-06T14:52:23;20.50;99.90
29713;DHT22;16623;53.632;10.016;2022-07-06T14:54:48;20.40;99.90
29713;DHT22;16623;53.632;10.016;2022-07-06T14:57:14;20.40;99.90
29713;DHT22;16623;53.632;10.016;2022-07-06T14:59:39;20.40;99.90
29713;DHT22;16623;53.632;10.016;2022-07-06T15:02:05;20.40;99.90
29713;DHT22;16623;53.632;10.016;2022-07-06T15:04:30;20.30;99.90
29713;DHT22;16623;53.632;10.016;2022-07-06T15:06:57;20.40;99.90
29713;DHT22;16623;53.632;10.016;2022-07-06T15:09:23;20.40;99.90
29713;DHT22;16623;53.632;10.016;2022-07-06T15:11:48;20.30;99.90
29713;DHT22;16623;53.632;10.016;2022-07-06T15:14:14;20.20;99.90
29713;DHT22;16623;53.632;10.016;2022-07-06T15:16:42;20.30;99.90
29713;DHT22;16623;53.632;10.016;2022-07-06T15:19:09;20.10;99.90
29713;DHT22;16623;53.632;10.016;2022-07-06T15:21:34;20.10;99.90
29713;DHT22;16623;53.632;10.016;2022-07-06T15:24:00;20.10;99.90
29713;DHT22;16623;53.632;10.016;2022-07-06T15:26:26;20.00;99.90